Marske-by-the-Sea, United Kingdom
Current Conditions -  °F | °C
As of 9:50 PM on Thursday 20 Nov 2014 (Local Time) from EGNV Reporting Station
Haze Haze  
Wind Chill: 43°   Ceiling: Unl
Heat Index: 43°   Visibility: 1.2mi
Dew Point: 43°   Wind: 3mph
Humidity: 100%   Direction: 10°N
Pressure: 30.3"   Gusts: NA
Location:  54.59°N, 1.02°W
Report Text: EGNV 202150Z 01003KT 2000 BR FEW045 06/06 Q1026
Loading
Personal Weather Stations






























Interactive Weather Map New forecast layout! Learn more

10-Day Weather Forecast

Advertisements
Track Severe Weather on mobile